Stephenville, Texas
Current Conditions -  °F | °C
As of 8:15 AM on Monday 20 Oct 2014 (Local Time) from KSEP Reporting Station
Overcast Overcast  
Wind Chill: 58°   Ceiling: 700
Heat Index: 58°   Visibility: 1mi
Dew Point: 56°   Wind: 0mph
Humidity: 93%   Direction: NA
Pressure: 30.11"   Gusts: NA
Location:  32.22°N, 98.2°W
Report Text: KSEP 201315Z AUTO 00000KT 1SM VV007 14/13 A3011 RMK AO2 T01430132
Loading
Personal Weather Stations






























Interactive Weather Map New forecast layout! Learn more

10-Day Weather Forecast

Advertisements
Track Severe Weather on mobile